Benetusser, Spain
Current Conditions -  °F | °C
As of 2:30 AM on Sunday 26 Oct 2014 (Local Time) from LEVC Reporting Station
Clear Clear  
Wind Chill: 61°   Ceiling: Unl
Heat Index: 61°   Visibility: 6mi
Dew Point: 52°   Wind: 3mph
Humidity: 72%   Direction: 290°WNW
Pressure: 30.15"   Gusts: NA
Location:  39.42°N, 0.4°W
Report Text: LEVC 260030Z 29003KT CAVOK 16/11 Q1021 NOSIG
Loading
Personal Weather Stations






























Interactive Weather Map
Tropical Storm Tracking
New forecast layout! Learn more

10-Day Weather Forecast

Advertisements
Track Severe Weather on mobile